Greenville Farm
1800 N 800 E, North Logan
Last Weather Update:11/30/2011
Date
ETo
ETc
Rain
Irrigation
Req
Temp
Max
Temp
Min
Temp
Avg
Avg RH
Avg Wind
Avg Solar
inches
inches
incehs
inches
F
F
F
%
%
watts/m2
10/1/2011 0.15" 0.09" 0.00" 0.09" 81.7° 49.8° 65.9° 42.8% 3.7 MPH 17.4w/m2
10/2/2011 0.14" 0.08" 0.00" 0.08" 78.4° 53.9° 67.1° 40.6% 4.1 MPH 15.3w/m2
10/3/2011 0.14" 0.08" 0.00" 0.08" 81.0° 48.4° 62.8° 52.4% 3.7 MPH 17.0w/m2
10/4/2011 0.09" 0.05" 0.29" -0.19" 69.8° 53.7° 59.7° 66.7% 3.8 MPH 12.1w/m2
10/5/2011 0.06" 0.03" 0.20" -0.13" 61.7° 40.8° 54.1° 67.7% 4.7 MPH 5.1w/m2
10/6/2011 0.03" 0.01" 0.33" -0.25" 41.8° 35.0° 38.2° 88.4% 3.8 MPH 3.6w/m2
10/7/2011 0.02" 0.01" 0.12" -0.09" 41.9° 37.8° 40.1° 85.4% 3.2 MPH 2.1w/m2
10/8/2011 0.05" 0.02" 0.09" -0.05" 51.8° 39.1° 44.2° 80.7% 2.1 MPH 8.4w/m2
10/9/2011 0.09" 0.04" 0.00" 0.04" 58.1° 32.3° 44.3° 73.7% 2.7 MPH 17.1w/m2
10/10/2011 0.08" 0.03" 0.00" 0.03" 60.8° 35.1° 46.8° 71.2% 3.2 MPH 11.9w/m2
10/11/2011 0.06" 0.02" 0.09" -0.05" 63.7° 43.2° 51.6° 74.2% 3.1 MPH 8.7w/m2
10/12/2011 0.10" 0.04" 0.00" 0.04" 61.6° 36.6° 48.4° 61.6% 2.9 MPH 15.9w/m2
10/13/2011 0.10" 0.04" 0.00" 0.04" 68.3° 37.5° 51.2° 57.0% 2.6 MPH 16.5w/m2
10/14/2011 0.10" 0.03" 0.00" 0.03" 71.9° 40.5° 53.8° 56.8% 2.5 MPH 15.7w/m2
10/15/2011 0.10" 0.03" 0.00" 0.03" 76.3° 42.2° 56.9° 56.5% 2.7 MPH 14.8w/m2
10/16/2011 0.06" 0.02" 0.15" -0.10" 64.2° 44.2° 53.5° 62.7% 3.6 MPH 5.6w/m2
10/17/2011 0.08" 0.02" 0.09" -0.05" 57.5° 42.2° 48.0° 72.6% 2.8 MPH 14.2w/m2
10/18/2011 0.08" 0.02" 0.00" 0.02" 60.6° 31.8° 44.0° 69.0% 2.2 MPH 15.5w/m2
10/19/2011 0.08" 0.02" 0.00" 0.02" 63.4° 31.0° 45.7° 65.6% 2.8 MPH 14.9w/m2
10/20/2011 0.08" 0.02" 0.00" 0.02" 65.0° 35.0° 48.1° 61.1% 2.4 MPH 14.7w/m2
10/21/2011 0.08" 0.02" 0.00" 0.02" 65.8° 37.9° 49.6° 63.4% 2.4 MPH 14.0w/m2
10/22/2011 0.08" 0.01" 0.00" 0.01" 63.4° 36.7° 49.3° 61.9% 2.6 MPH 14.2w/m2
10/23/2011 0.08" 0.01" 0.00" 0.01" 68.1° 35.2° 49.0° 62.6% 2.3 MPH 14.3w/m2
10/24/2011 0.08" 0.01" 0.00" 0.01" 68.7° 36.8° 50.3° 60.4% 3.3 MPH 11.8w/m2
10/25/2011 0.05" 0.01" 0.04" -0.03" 48.6° 31.2° 40.0° 65.8% 3.0 MPH 10.9w/m2
10/26/2011 0.07" 0.01" 0.00" 0.01" 45.9° 23.9° 33.5° 58.5% 2.8 MPH 13.8w/m2
10/27/2011 0.07" 0.01" 0.00" 0.01" 48.5° 25.1° 35.2° 48.7% 2.5 MPH 13.5w/m2
10/28/2011 0.05" 0.00" 0.00" 0.00" 52.5° 22.7° 35.5° 53.0% 2.3 MPH 11.3w/m2
10/29/2011 0.06" 0.00" 0.00" 0.00" 56.1° 26.4° 40.2° 48.5% 2.6 MPH 9.0w/m2
10/30/2011 0.07" 0.00" 0.00" 0.00" 60.5° 28.8° 43.0° 62.4% 2.7 MPH 13.1w/m2
10/31/2011 0.06" 0.00" 0.05" -0.04" 61.4° 32.0° 44.7° 62.3% 2.5 MPH 9.2w/m2
Totals: 2.45" 0.77" 1.45" -0.39" 81.7° 22.7° 48.2° 63.0% 3.0 MPH 12.3w/m2